WMT411 LATI-LIPY
Flight info
| Callsign | WMT411 |
|---|---|
| Flight time | 1h 7m |
| Altitude | 36000 |
| Route | DIRES DCT PAPIZ DCT PISIP DCT VIE DCT RUPAX DCT ERPOG DCT ARSOB/N0363F180 L612 MASEG |
| Aircraft | A321/M-SDE1E2E3FGIJ1J4RWXY/LB1 |
Departure
| Time | 2026-04-29 12:58 |
|---|---|
| Airport | Tirana International Airport Mother Teresa (LATI) |
Arrival
| Time | 2026-04-29 14:06 |
|---|---|
| Airport | Marche Airport (LIPY) |
| Time | Latitude | Longitude | Altitude | Speed | Heading |
|---|---|---|---|---|---|
| 2026-04-29 12:31 | 41.41949 | 19.71519 | 123 ft | 0 kts | 264° |
| 2026-04-29 12:34 | 41.41950 | 19.71519 | 123 ft | 0 kts | 264° |
| 2026-04-29 12:34 | 41.41949 | 19.71519 | 123 ft | 0 kts | 264° |
| 2026-04-29 12:34 | 41.41950 | 19.71519 | 123 ft | 0 kts | 264° |
| 2026-04-29 12:37 | 41.41950 | 19.71520 | 123 ft | 0 kts | 264° |
| 2026-04-29 12:52 | 41.41950 | 19.71524 | 123 ft | 2 kts | 263° |
| 2026-04-29 12:52 | 41.41956 | 19.71556 | 121 ft | 4 kts | 233° |
| 2026-04-29 12:52 | 41.41975 | 19.71575 | 118 ft | 4 kts | 184° |
| 2026-04-29 12:53 | 41.41984 | 19.71576 | 118 ft | 0 kts | 174° |
| 2026-04-29 12:54 | 41.41983 | 19.71576 | 118 ft | 1 kts | 174° |
| 2026-04-29 12:54 | 41.41954 | 19.71579 | 118 ft | 7 kts | 175° |
| 2026-04-29 12:55 | 41.41885 | 19.71589 | 122 ft | 12 kts | 173° |
| 2026-04-29 12:55 | 41.41794 | 19.71602 | 122 ft | 14 kts | 174° |
| 2026-04-29 12:55 | 41.41685 | 19.71616 | 124 ft | 17 kts | 174° |
| 2026-04-29 12:55 | 41.41556 | 19.71633 | 127 ft | 20 kts | 174° |
| 2026-04-29 12:56 | 41.41402 | 19.71654 | 126 ft | 24 kts | 175° |
| 2026-04-29 12:56 | 41.41232 | 19.71677 | 128 ft | 24 kts | 174° |
| 2026-04-29 12:56 | 41.41064 | 19.71701 | 126 ft | 24 kts | 174° |
| 2026-04-29 12:56 | 41.40895 | 19.71730 | 131 ft | 25 kts | 170° |
| 2026-04-29 12:57 | 41.40726 | 19.71769 | 132 ft | 22 kts | 171° |
| 2026-04-29 12:57 | 41.40640 | 19.71852 | 132 ft | 17 kts | 93° |
| 2026-04-29 12:57 | 41.40670 | 19.72004 | 132 ft | 17 kts | 74° |
| 2026-04-29 12:57 | 41.40730 | 19.72131 | 134 ft | 18 kts | 22° |
| 2026-04-29 12:58 | 41.40961 | 19.72126 | 133 ft | 63 kts | 354° |
| 2026-04-29 12:58 | 41.41640 | 19.72031 | 126 ft | 130 kts | 354° |
| 2026-04-29 12:58 | 41.42711 | 19.71888 | 256 ft | 168 kts | 353° |
| 2026-04-29 12:58 | 41.43881 | 19.71740 | 890 ft | 169 kts | 350° |
| 2026-04-29 12:59 | 41.45058 | 19.71583 | 1569 ft | 175 kts | 352° |
| 2026-04-29 12:59 | 41.46333 | 19.71408 | 1925 ft | 194 kts | 351° |
| 2026-04-29 12:59 | 41.47749 | 19.71213 | 2127 ft | 215 kts | 352° |
| 2026-04-29 12:59 | 41.49293 | 19.71003 | 2413 ft | 227 kts | 352° |
| 2026-04-29 13:00 | 41.50882 | 19.70793 | 2822 ft | 232 kts | 353° |
| 2026-04-29 13:00 | 41.52498 | 19.70580 | 3219 ft | 235 kts | 353° |
| 2026-04-29 13:00 | 41.54133 | 19.70364 | 3648 ft | 237 kts | 353° |
| 2026-04-29 13:00 | 41.55775 | 19.70146 | 3971 ft | 239 kts | 352° |
| 2026-04-29 13:01 | 41.57498 | 19.69914 | 4008 ft | 263 kts | 353° |
| 2026-04-29 13:01 | 41.59368 | 19.69660 | 4008 ft | 275 kts | 353° |
| 2026-04-29 13:01 | 41.61252 | 19.69155 | 4682 ft | 277 kts | 335° |
| 2026-04-29 13:01 | 41.62813 | 19.67692 | 5493 ft | 275 kts | 309° |
| 2026-04-29 13:02 | 41.63772 | 19.65510 | 6290 ft | 274 kts | 286° |
| 2026-04-29 13:02 | 41.63988 | 19.62999 | 7035 ft | 275 kts | 262° |
| 2026-04-29 13:02 | 41.63416 | 19.60575 | 7797 ft | 276 kts | 240° |
| 2026-04-29 13:02 | 41.62145 | 19.58648 | 8524 ft | 281 kts | 217° |
| 2026-04-29 13:03 | 41.60356 | 19.57577 | 9198 ft | 288 kts | 192° |
| 2026-04-29 13:03 | 41.58334 | 19.57541 | 9880 ft | 295 kts | 176° |
| 2026-04-29 13:03 | 41.56262 | 19.57789 | 10431 ft | 306 kts | 176° |
| 2026-04-29 13:03 | 41.54061 | 19.58055 | 10606 ft | 329 kts | 176° |
| 2026-04-29 13:04 | 41.51714 | 19.58335 | 10896 ft | 345 kts | 176° |
| 2026-04-29 13:04 | 41.49303 | 19.58618 | 11499 ft | 350 kts | 177° |
| 2026-04-29 13:04 | 41.46858 | 19.58899 | 12140 ft | 355 kts | 177° |
| 2026-04-29 13:04 | 41.44384 | 19.59182 | 12796 ft | 358 kts | 177° |
| 2026-04-29 13:05 | 41.41884 | 19.59467 | 13464 ft | 362 kts | 177° |
| 2026-04-29 13:05 | 41.39362 | 19.59755 | 14095 ft | 366 kts | 178° |
| 2026-04-29 13:05 | 41.36805 | 19.60047 | 14671 ft | 370 kts | 178° |
| 2026-04-29 13:05 | 41.34228 | 19.60337 | 15269 ft | 374 kts | 178° |
| 2026-04-29 13:06 | 41.31626 | 19.60367 | 15833 ft | 374 kts | 189° |
| 2026-04-29 13:06 | 41.29106 | 19.59584 | 16400 ft | 372 kts | 204° |
| 2026-04-29 13:06 | 41.26820 | 19.58009 | 16989 ft | 370 kts | 218° |
| 2026-04-29 13:06 | 41.24926 | 19.55786 | 17574 ft | 368 kts | 232° |
| 2026-04-29 13:07 | 41.23398 | 19.53014 | 18194 ft | 368 kts | 239° |
| 2026-04-29 13:07 | 41.21949 | 19.50198 | 18742 ft | 370 kts | 238° |
| 2026-04-29 13:07 | 41.20503 | 19.47410 | 19257 ft | 373 kts | 238° |
| 2026-04-29 13:07 | 41.19022 | 19.44567 | 19785 ft | 375 kts | 238° |
| 2026-04-29 13:08 | 41.17531 | 19.41711 | 20311 ft | 378 kts | 238° |
| 2026-04-29 13:08 | 41.16030 | 19.38838 | 20841 ft | 380 kts | 238° |
| 2026-04-29 13:08 | 41.14519 | 19.35946 | 21363 ft | 383 kts | 238° |
| 2026-04-29 13:08 | 41.12996 | 19.33032 | 21889 ft | 385 kts | 238° |
| 2026-04-29 13:09 | 41.11463 | 19.30101 | 22405 ft | 388 kts | 238° |
| 2026-04-29 13:09 | 41.09919 | 19.27152 | 22896 ft | 390 kts | 238° |
| 2026-04-29 13:09 | 41.08363 | 19.24186 | 23371 ft | 393 kts | 238° |
| 2026-04-29 13:09 | 41.06797 | 19.21203 | 23808 ft | 395 kts | 238° |
| 2026-04-29 13:10 | 41.05122 | 19.18292 | 24194 ft | 401 kts | 232° |
| 2026-04-29 13:10 | 41.03238 | 19.15553 | 24571 ft | 403 kts | 231° |
| 2026-04-29 13:10 | 41.01338 | 19.12807 | 24961 ft | 406 kts | 231° |
| 2026-04-29 13:10 | 40.99430 | 19.10044 | 25312 ft | 408 kts | 231° |
| 2026-04-29 13:11 | 40.97509 | 19.07263 | 25682 ft | 410 kts | 231° |
| 2026-04-29 13:11 | 40.95577 | 19.04470 | 26048 ft | 413 kts | 231° |
| 2026-04-29 13:11 | 40.93691 | 19.01604 | 26406 ft | 413 kts | 237° |
| 2026-04-29 13:11 | 40.92249 | 18.98347 | 26748 ft | 410 kts | 249° |
| 2026-04-29 13:12 | 40.91387 | 18.94769 | 27087 ft | 409 kts | 261° |
| 2026-04-29 13:12 | 40.91140 | 18.91036 | 27419 ft | 409 kts | 273° |
| 2026-04-29 13:12 | 40.91509 | 18.87317 | 27764 ft | 410 kts | 284° |
| 2026-04-29 13:12 | 40.92083 | 18.84938 | 27991 ft | 411 kts | 291° |
| 2026-04-29 13:13 | 40.93461 | 18.80199 | 28444 ft | 414 kts | 291° |
| 2026-04-29 13:13 | 40.94490 | 18.76639 | 28769 ft | 416 kts | 290° |
| 2026-04-29 13:13 | 40.95520 | 18.73047 | 29083 ft | 418 kts | 290° |
| 2026-04-29 13:13 | 40.96548 | 18.69431 | 29404 ft | 421 kts | 290° |
| 2026-04-29 13:14 | 40.97577 | 18.65800 | 29721 ft | 423 kts | 290° |
| 2026-04-29 13:14 | 40.98616 | 18.62151 | 30039 ft | 425 kts | 290° |
| 2026-04-29 13:14 | 40.99668 | 18.58485 | 30327 ft | 427 kts | 290° |
| 2026-04-29 13:14 | 41.00367 | 18.56047 | 30509 ft | 428 kts | 290° |
| 2026-04-29 13:15 | 41.01423 | 18.52354 | 30798 ft | 430 kts | 290° |
| 2026-04-29 13:15 | 41.02476 | 18.48654 | 31134 ft | 430 kts | 290° |
| 2026-04-29 13:15 | 41.03527 | 18.44954 | 31543 ft | 428 kts | 290° |
| 2026-04-29 13:15 | 41.04911 | 18.40075 | 32059 ft | 427 kts | 290° |
| 2026-04-29 13:16 | 41.05946 | 18.36402 | 32438 ft | 426 kts | 290° |
| 2026-04-29 13:16 | 41.06644 | 18.33920 | 32696 ft | 425 kts | 290° |
| 2026-04-29 13:16 | 41.07674 | 18.30255 | 33091 ft | 424 kts | 290° |
| 2026-04-29 13:16 | 41.08698 | 18.26606 | 33459 ft | 422 kts | 290° |
| 2026-04-29 13:17 | 41.09720 | 18.22957 | 33837 ft | 421 kts | 290° |
| 2026-04-29 13:17 | 41.10738 | 18.19320 | 34188 ft | 420 kts | 290° |
| 2026-04-29 13:17 | 41.11753 | 18.15693 | 34501 ft | 419 kts | 290° |
| 2026-04-29 13:17 | 41.12765 | 18.12073 | 34802 ft | 418 kts | 290° |
| 2026-04-29 13:18 | 41.13762 | 18.08510 | 35093 ft | 418 kts | 290° |
| 2026-04-29 13:18 | 41.14771 | 18.04897 | 35387 ft | 417 kts | 290° |
| 2026-04-29 13:18 | 41.15776 | 18.01290 | 35680 ft | 416 kts | 290° |
| 2026-04-29 13:18 | 41.16775 | 17.97691 | 35959 ft | 416 kts | 290° |
| 2026-04-29 13:19 | 41.17775 | 17.94090 | 36039 ft | 415 kts | 289° |
| 2026-04-29 13:19 | 41.19762 | 17.86926 | 36046 ft | 413 kts | 289° |
| 2026-04-29 13:20 | 41.21737 | 17.79771 | 36054 ft | 413 kts | 289° |
| 2026-04-29 13:20 | 41.23703 | 17.72631 | 36038 ft | 411 kts | 289° |
| 2026-04-29 13:21 | 41.25657 | 17.65491 | 36046 ft | 411 kts | 289° |
| 2026-04-29 13:21 | 41.27621 | 17.58346 | 36044 ft | 412 kts | 289° |
| 2026-04-29 13:22 | 41.29577 | 17.51190 | 36050 ft | 412 kts | 289° |
| 2026-04-29 13:22 | 41.31532 | 17.44020 | 36055 ft | 412 kts | 289° |
| 2026-04-29 13:23 | 41.33480 | 17.36839 | 36057 ft | 413 kts | 289° |
| 2026-04-29 13:23 | 41.35426 | 17.29655 | 36053 ft | 413 kts | 289° |
| 2026-04-29 13:24 | 41.37369 | 17.22456 | 36053 ft | 413 kts | 289° |
| 2026-04-29 13:24 | 41.39304 | 17.15257 | 36055 ft | 413 kts | 289° |
| 2026-04-29 13:25 | 41.41223 | 17.08098 | 36063 ft | 413 kts | 289° |
| 2026-04-29 13:25 | 41.44115 | 16.97271 | 36055 ft | 413 kts | 289° |
| 2026-04-29 13:26 | 41.46041 | 16.90047 | 36052 ft | 414 kts | 289° |
| 2026-04-29 13:26 | 41.47964 | 16.82813 | 36057 ft | 414 kts | 289° |
| 2026-04-29 13:27 | 41.49875 | 16.75575 | 36060 ft | 414 kts | 289° |
| 2026-04-29 13:27 | 41.51788 | 16.68334 | 36049 ft | 414 kts | 289° |
| 2026-04-29 13:28 | 41.54452 | 16.61537 | 36053 ft | 417 kts | 306° |
| 2026-04-29 13:28 | 41.58250 | 16.55670 | 36054 ft | 418 kts | 309° |
| 2026-04-29 13:29 | 41.62091 | 16.49835 | 36058 ft | 418 kts | 309° |
| 2026-04-29 13:29 | 41.65931 | 16.43985 | 36044 ft | 418 kts | 309° |
| 2026-04-29 13:30 | 41.69600 | 16.38361 | 36049 ft | 418 kts | 309° |
| 2026-04-29 13:30 | 41.73417 | 16.32482 | 36049 ft | 419 kts | 309° |
| 2026-04-29 13:31 | 41.77238 | 16.26594 | 36041 ft | 419 kts | 309° |
| 2026-04-29 13:31 | 41.81066 | 16.20707 | 36041 ft | 419 kts | 309° |
| 2026-04-29 13:32 | 41.84901 | 16.14796 | 36041 ft | 420 kts | 309° |
| 2026-04-29 13:32 | 41.88726 | 16.08881 | 36057 ft | 420 kts | 308° |
| 2026-04-29 13:33 | 41.92553 | 16.02968 | 36051 ft | 420 kts | 309° |
| 2026-04-29 13:33 | 41.96469 | 15.97153 | 36050 ft | 420 kts | 310° |
| 2026-04-29 13:34 | 42.00426 | 15.91391 | 36078 ft | 419 kts | 310° |
| 2026-04-29 13:34 | 42.04362 | 15.85598 | 36068 ft | 419 kts | 310° |
| 2026-04-29 13:35 | 42.08254 | 15.79818 | 36064 ft | 419 kts | 309° |
| 2026-04-29 13:35 | 42.12163 | 15.73993 | 36064 ft | 419 kts | 309° |
| 2026-04-29 13:36 | 42.16072 | 15.68159 | 36068 ft | 419 kts | 309° |
| 2026-04-29 13:36 | 42.19977 | 15.62324 | 36046 ft | 419 kts | 309° |
| 2026-04-29 13:37 | 42.23882 | 15.56484 | 36052 ft | 419 kts | 309° |
| 2026-04-29 13:37 | 42.27777 | 15.50642 | 36047 ft | 419 kts | 309° |
| 2026-04-29 13:38 | 42.31668 | 15.44792 | 36043 ft | 419 kts | 309° |
| 2026-04-29 13:38 | 42.35547 | 15.38923 | 36043 ft | 418 kts | 309° |
| 2026-04-29 13:39 | 42.39420 | 15.33044 | 36043 ft | 419 kts | 309° |
| 2026-04-29 13:39 | 42.41356 | 15.30101 | 35888 ft | 418 kts | 309° |
| 2026-04-29 13:39 | 42.43287 | 15.27168 | 35633 ft | 417 kts | 309° |
| 2026-04-29 13:40 | 42.45216 | 15.24230 | 35384 ft | 418 kts | 309° |
| 2026-04-29 13:40 | 42.47144 | 15.21288 | 35137 ft | 418 kts | 309° |
| 2026-04-29 13:40 | 42.49076 | 15.18341 | 34893 ft | 418 kts | 309° |
| 2026-04-29 13:40 | 42.51009 | 15.15405 | 34651 ft | 417 kts | 309° |
| 2026-04-29 13:41 | 42.52939 | 15.12477 | 34411 ft | 416 kts | 309° |
| 2026-04-29 13:41 | 42.54864 | 15.09555 | 34172 ft | 414 kts | 309° |
| 2026-04-29 13:41 | 42.56776 | 15.06648 | 33911 ft | 412 kts | 309° |
| 2026-04-29 13:41 | 42.58675 | 15.03758 | 33431 ft | 408 kts | 309° |
| 2026-04-29 13:42 | 42.60556 | 15.00894 | 32951 ft | 405 kts | 309° |
| 2026-04-29 13:42 | 42.62393 | 14.98093 | 32479 ft | 401 kts | 309° |
| 2026-04-29 13:42 | 42.64262 | 14.95233 | 32000 ft | 398 kts | 309° |
| 2026-04-29 13:42 | 42.66087 | 14.92434 | 31532 ft | 395 kts | 309° |
| 2026-04-29 13:43 | 42.67897 | 14.89653 | 31056 ft | 392 kts | 309° |
| 2026-04-29 13:43 | 42.69672 | 14.86921 | 30596 ft | 389 kts | 309° |
| 2026-04-29 13:43 | 42.71456 | 14.84172 | 30132 ft | 386 kts | 309° |
| 2026-04-29 13:43 | 42.73228 | 14.81445 | 29630 ft | 383 kts | 309° |
| 2026-04-29 13:44 | 42.74984 | 14.78743 | 29183 ft | 379 kts | 309° |
| 2026-04-29 13:44 | 42.76721 | 14.76071 | 28745 ft | 375 kts | 309° |
| 2026-04-29 13:44 | 42.78441 | 14.73426 | 28312 ft | 371 kts | 309° |
| 2026-04-29 13:44 | 42.80145 | 14.70804 | 27892 ft | 368 kts | 309° |
| 2026-04-29 13:45 | 42.81836 | 14.68202 | 27478 ft | 366 kts | 309° |
| 2026-04-29 13:45 | 42.83517 | 14.65611 | 27066 ft | 363 kts | 309° |
| 2026-04-29 13:45 | 42.85184 | 14.63034 | 26671 ft | 361 kts | 309° |
| 2026-04-29 13:45 | 42.86833 | 14.60480 | 26275 ft | 358 kts | 309° |
| 2026-04-29 13:46 | 42.88469 | 14.57940 | 25883 ft | 355 kts | 309° |
| 2026-04-29 13:46 | 42.90092 | 14.55418 | 25511 ft | 352 kts | 308° |
| 2026-04-29 13:46 | 42.91705 | 14.52914 | 25112 ft | 350 kts | 308° |
| 2026-04-29 13:46 | 42.93302 | 14.50426 | 24721 ft | 347 kts | 308° |
| 2026-04-29 13:47 | 42.94888 | 14.47953 | 24331 ft | 345 kts | 308° |
| 2026-04-29 13:47 | 42.96462 | 14.45501 | 23940 ft | 342 kts | 308° |
| 2026-04-29 13:47 | 42.98029 | 14.43064 | 23534 ft | 340 kts | 308° |
| 2026-04-29 13:47 | 42.99586 | 14.40647 | 23101 ft | 337 kts | 308° |
| 2026-04-29 13:48 | 43.01125 | 14.38254 | 22696 ft | 333 kts | 308° |
| 2026-04-29 13:48 | 43.02640 | 14.35888 | 22299 ft | 329 kts | 308° |
| 2026-04-29 13:48 | 43.04136 | 14.33545 | 21900 ft | 326 kts | 308° |
| 2026-04-29 13:48 | 43.05599 | 14.31251 | 21509 ft | 323 kts | 308° |
| 2026-04-29 13:49 | 43.07087 | 14.28921 | 21112 ft | 319 kts | 308° |
| 2026-04-29 13:49 | 43.08543 | 14.26640 | 20710 ft | 317 kts | 308° |
| 2026-04-29 13:49 | 43.09985 | 14.24380 | 20328 ft | 314 kts | 308° |
| 2026-04-29 13:49 | 43.11415 | 14.22133 | 19938 ft | 312 kts | 308° |
| 2026-04-29 13:50 | 43.12836 | 14.19899 | 19543 ft | 310 kts | 308° |
| 2026-04-29 13:50 | 43.14249 | 14.17675 | 19164 ft | 309 kts | 308° |
| 2026-04-29 13:50 | 43.15521 | 14.15672 | 18830 ft | 308 kts | 308° |
| 2026-04-29 13:50 | 43.16921 | 14.13470 | 18430 ft | 306 kts | 308° |
| 2026-04-29 13:51 | 43.18320 | 14.11274 | 18004 ft | 305 kts | 308° |
| 2026-04-29 13:51 | 43.19710 | 14.09089 | 17616 ft | 303 kts | 308° |
| 2026-04-29 13:51 | 43.21089 | 14.06923 | 17242 ft | 300 kts | 308° |
| 2026-04-29 13:51 | 43.22455 | 14.04781 | 16867 ft | 298 kts | 308° |
| 2026-04-29 13:52 | 43.23812 | 14.02645 | 16490 ft | 295 kts | 308° |
| 2026-04-29 13:52 | 43.25157 | 14.00525 | 16115 ft | 294 kts | 308° |
| 2026-04-29 13:52 | 43.26493 | 13.98415 | 15744 ft | 292 kts | 308° |
| 2026-04-29 13:52 | 43.27852 | 13.96264 | 15383 ft | 307 kts | 308° |
| 2026-04-29 13:53 | 43.29262 | 13.94028 | 15025 ft | 312 kts | 308° |
| 2026-04-29 13:53 | 43.30680 | 13.91779 | 14657 ft | 312 kts | 308° |
| 2026-04-29 13:53 | 43.32100 | 13.89533 | 14303 ft | 311 kts | 308° |
| 2026-04-29 13:53 | 43.33514 | 13.87298 | 13944 ft | 309 kts | 308° |
| 2026-04-29 13:54 | 43.34923 | 13.85068 | 13545 ft | 308 kts | 308° |
| 2026-04-29 13:54 | 43.36321 | 13.82845 | 13152 ft | 307 kts | 308° |
| 2026-04-29 13:54 | 43.37709 | 13.80633 | 12761 ft | 305 kts | 308° |
| 2026-04-29 13:54 | 43.39090 | 13.78435 | 12385 ft | 303 kts | 308° |
| 2026-04-29 13:55 | 43.40395 | 13.76180 | 11997 ft | 299 kts | 300° |
| 2026-04-29 13:55 | 43.41287 | 13.73636 | 11625 ft | 294 kts | 286° |
| 2026-04-29 13:55 | 43.41719 | 13.70930 | 11243 ft | 290 kts | 276° |
| 2026-04-29 13:55 | 43.41999 | 13.68186 | 10876 ft | 290 kts | 277° |
| 2026-04-29 13:56 | 43.42283 | 13.65447 | 10513 ft | 289 kts | 277° |
| 2026-04-29 13:56 | 43.42564 | 13.62751 | 10144 ft | 276 kts | 276° |
| 2026-04-29 13:56 | 43.42579 | 13.60155 | 9777 ft | 270 kts | 261° |
| 2026-04-29 13:56 | 43.42107 | 13.57734 | 9381 ft | 255 kts | 247° |
| 2026-04-29 13:57 | 43.41281 | 13.55624 | 8993 ft | 248 kts | 241° |
| 2026-04-29 13:57 | 43.40415 | 13.53578 | 8597 ft | 248 kts | 241° |
| 2026-04-29 13:57 | 43.39554 | 13.51529 | 8217 ft | 247 kts | 241° |
| 2026-04-29 13:57 | 43.38986 | 13.50172 | 7966 ft | 247 kts | 241° |
| 2026-04-29 13:58 | 43.37851 | 13.47465 | 7460 ft | 238 kts | 241° |
| 2026-04-29 13:58 | 43.37040 | 13.45535 | 7094 ft | 230 kts | 241° |
| 2026-04-29 13:58 | 43.36394 | 13.43550 | 6734 ft | 226 kts | 261° |
| 2026-04-29 13:58 | 43.36426 | 13.41415 | 6371 ft | 226 kts | 285° |
| 2026-04-29 13:59 | 43.37153 | 13.39512 | 5985 ft | 228 kts | 311° |
| 2026-04-29 13:59 | 43.38283 | 13.37953 | 5611 ft | 231 kts | 312° |
| 2026-04-29 13:59 | 43.39414 | 13.36413 | 5233 ft | 227 kts | 313° |
| 2026-04-29 13:59 | 43.40531 | 13.34875 | 4860 ft | 228 kts | 313° |
| 2026-04-29 14:00 | 43.41644 | 13.33310 | 4478 ft | 230 kts | 314° |
| 2026-04-29 14:00 | 43.42737 | 13.31762 | 4216 ft | 229 kts | 314° |
| 2026-04-29 14:00 | 43.43849 | 13.30186 | 4083 ft | 229 kts | 315° |
| 2026-04-29 14:00 | 43.44960 | 13.28611 | 3955 ft | 229 kts | 315° |
| 2026-04-29 14:01 | 43.46044 | 13.27074 | 3863 ft | 219 kts | 314° |
| 2026-04-29 14:01 | 43.47086 | 13.25594 | 3709 ft | 212 kts | 314° |
| 2026-04-29 14:01 | 43.48108 | 13.24146 | 3489 ft | 210 kts | 314° |
| 2026-04-29 14:01 | 43.49130 | 13.22711 | 3205 ft | 210 kts | 318° |
| 2026-04-29 14:02 | 43.50373 | 13.21849 | 2938 ft | 197 kts | 356° |
| 2026-04-29 14:02 | 43.51583 | 13.22421 | 2669 ft | 181 kts | 40° |
| 2026-04-29 14:02 | 43.52456 | 13.23595 | 2413 ft | 170 kts | 44° |
| 2026-04-29 14:02 | 43.53249 | 13.24691 | 2204 ft | 151 kts | 45° |
| 2026-04-29 14:03 | 43.53968 | 13.25684 | 1968 ft | 143 kts | 45° |
| 2026-04-29 14:03 | 43.54669 | 13.26649 | 1781 ft | 141 kts | 45° |
| 2026-04-29 14:03 | 43.55138 | 13.27291 | 1648 ft | 140 kts | 43° |
| 2026-04-29 14:03 | 43.55830 | 13.28240 | 1456 ft | 140 kts | 46° |
| 2026-04-29 14:04 | 43.56513 | 13.29178 | 1283 ft | 137 kts | 46° |
| 2026-04-29 14:04 | 43.57194 | 13.30114 | 1097 ft | 138 kts | 47° |
| 2026-04-29 14:04 | 43.57867 | 13.31038 | 918 ft | 141 kts | 47° |
| 2026-04-29 14:04 | 43.58563 | 13.31994 | 721 ft | 138 kts | 48° |
| 2026-04-29 14:05 | 43.59247 | 13.32937 | 573 ft | 136 kts | 46° |
| 2026-04-29 14:05 | 43.59900 | 13.33842 | 371 ft | 135 kts | 47° |
| 2026-04-29 14:05 | 43.60561 | 13.34761 | 180 ft | 134 kts | 44° |
| 2026-04-29 14:05 | 43.61206 | 13.35644 | 58 ft | 118 kts | 44° |
| 2026-04-29 14:06 | 43.61670 | 13.36279 | 52 ft | 69 kts | 45° |
| 2026-04-29 14:06 | 43.61931 | 13.36638 | 46 ft | 47 kts | 45° |
| 2026-04-29 14:06 | 43.62055 | 13.36833 | 41 ft | 16 kts | 64° |
| 2026-04-29 14:06 | 43.62088 | 13.36845 | 41 ft | 2 kts | 274° |
| 2026-04-29 14:07 | 43.62049 | 13.36808 | 41 ft | 12 kts | 222° |
| 2026-04-29 14:07 | 43.61967 | 13.36697 | 43 ft | 19 kts | 224° |
| 2026-04-29 14:07 | 43.61878 | 13.36573 | 47 ft | 18 kts | 224° |
| 2026-04-29 14:07 | 43.61798 | 13.36454 | 50 ft | 16 kts | 224° |
| 2026-04-29 14:08 | 43.61721 | 13.36348 | 52 ft | 16 kts | 225° |
| 2026-04-29 14:08 | 43.61639 | 13.36235 | 53 ft | 17 kts | 225° |
| 2026-04-29 14:08 | 43.61554 | 13.36118 | 53 ft | 18 kts | 225° |
| 2026-04-29 14:08 | 43.61460 | 13.35986 | 51 ft | 20 kts | 225° |
| 2026-04-29 14:09 | 43.61358 | 13.35851 | 53 ft | 21 kts | 224° |
| 2026-04-29 14:09 | 43.61255 | 13.35712 | 53 ft | 20 kts | 224° |
| 2026-04-29 14:09 | 43.61163 | 13.35602 | 58 ft | 16 kts | 211° |
| 2026-04-29 14:09 | 43.61069 | 13.35560 | 58 ft | 13 kts | 186° |
| 2026-04-29 14:10 | 43.60978 | 13.35558 | 62 ft | 13 kts | 180° |
| 2026-04-29 14:10 | 43.60883 | 13.35517 | 61 ft | 15 kts | 218° |
| 2026-04-29 14:10 | 43.60811 | 13.35423 | 59 ft | 12 kts | 217° |
| 2026-04-29 14:10 | 43.60754 | 13.35453 | 62 ft | 8 kts | 136° |
| 2026-04-29 14:11 | 43.60748 | 13.35462 | 60 ft | 0 kts | 131° |